Time,TemperatureF,DewpointF,PressureIn,WindDirection,WindDirectionDegrees,WindSpeedMPH,WindSpeedGustMPH,Humidity,HourlyPrecipIn,Conditions,Clouds,dailyrainin,SolarRadiationWatts/m^2,SoftwareType,DateUTC
2013-12-07 00:03:00,40.0,40.0,-100.00,North,4,6.0,13.0,100,0.00,,,0.17,0.000000,,2013-12-07 05:03:00,
2013-12-07 00:43:00,40.0,40.0,-100.00,NNE,30,6.0,14.0,100,0.03,,,0.20,0.000000,,2013-12-07 05:43:00,
2013-12-07 00:53:00,40.0,40.0,-100.00,NNE,30,6.0,14.0,100,0.03,,,0.20,0.000000,,2013-12-07 05:53:00,
2013-12-07 01:02:00,40.0,40.0,-100.00,NNE,30,6.0,14.0,100,0.03,,,0.20,0.000000,,2013-12-07 06:02:00,
2013-12-07 01:43:00,40.0,40.0,-100.00,NNE,19,5.0,12.0,100,0.03,,,0.23,0.000000,,2013-12-07 06:43:00,
2013-12-07 01:53:00,40.0,40.0,-100.00,NNE,19,5.0,12.0,100,0.03,,,0.23,0.000000,,2013-12-07 06:53:00,
2013-12-07 02:02:00,40.0,40.0,-100.00,NNE,19,5.0,12.0,100,0.03,,,0.23,0.000000,,2013-12-07 07:02:00,
2013-12-07 02:42:00,40.0,40.0,-100.00,NNE,12,5.0,9.0,100,0.14,,,0.37,0.000000,,2013-12-07 07:42:00,
2013-12-07 02:53:00,40.0,40.0,-100.00,NNE,12,5.0,9.0,100,0.14,,,0.37,0.000000,,2013-12-07 07:53:00,
2013-12-07 03:02:00,40.0,40.0,-100.00,NNE,12,5.0,9.0,100,0.14,,,0.37,0.000000,,2013-12-07 08:02:00,
2013-12-07 03:42:00,39.0,39.0,-100.00,North,359,6.0,12.0,100,0.08,,,0.45,0.000000,,2013-12-07 08:42:00,
2013-12-07 03:52:00,39.0,39.0,-100.00,North,359,6.0,12.0,100,0.08,,,0.45,0.000000,,2013-12-07 08:52:00,
2013-12-07 04:02:00,39.0,39.0,-100.00,North,359,6.0,12.0,100,0.08,,,0.45,0.000000,,2013-12-07 09:02:00,
2013-12-07 04:44:00,38.0,38.0,-100.00,North,4,8.0,15.0,100,0.08,,,0.51,0.000000,,2013-12-07 09:44:00,
2013-12-07 04:53:00,38.0,38.0,-100.00,North,4,8.0,15.0,100,0.08,,,0.51,0.000000,,2013-12-07 09:53:00,
2013-12-07 05:03:00,38.0,38.0,-100.00,North,4,8.0,15.0,100,0.08,,,0.51,0.000000,,2013-12-07 10:03:00,
2013-12-07 05:43:00,38.0,38.0,-100.00,NNE,21,7.0,15.0,100,0.02,,,0.53,0.000000,,2013-12-07 10:43:00,
2013-12-07 05:53:00,38.0,38.0,-100.00,NNE,21,7.0,15.0,100,0.02,,,0.53,0.000000,,2013-12-07 10:53:00,
2013-12-07 06:02:00,38.0,38.0,-100.00,NNE,21,7.0,15.0,100,0.02,,,0.53,0.000000,,2013-12-07 11:02:00,
2013-12-07 06:42:00,38.0,38.0,-100.00,North,9,5.0,11.0,100,0.01,,,0.54,0.000000,,2013-12-07 11:42:00,
2013-12-07 06:52:00,38.0,38.0,-100.00,North,9,5.0,11.0,100,0.01,,,0.54,0.000000,,2013-12-07 11:52:00,
2013-12-07 07:02:00,38.0,38.0,-100.00,North,9,5.0,11.0,100,0.01,,,0.54,0.000000,,2013-12-07 12:02:00,
2013-12-07 07:43:00,38.0,37.0,-100.00,North,9,5.0,10.0,97,0.00,,,0.54,0.000000,,2013-12-07 12:43:00,
2013-12-07 07:52:00,38.0,37.0,-100.00,North,9,5.0,10.0,97,0.00,,,0.54,0.000000,,2013-12-07 12:52:00,
2013-12-07 08:02:00,38.0,37.0,-100.00,North,9,5.0,10.0,97,0.00,,,0.54,0.000000,,2013-12-07 13:02:00,
2013-12-07 08:42:00,38.0,37.0,-100.00,North,358,5.0,10.0,97,0.00,,,0.54,11.000000,,2013-12-07 13:42:00,
2013-12-07 08:52:00,38.0,37.0,-100.00,North,358,5.0,10.0,97,0.00,,,0.54,11.000000,,2013-12-07 13:52:00,
2013-12-07 09:02:00,38.0,37.0,-100.00,North,358,5.0,10.0,97,0.00,,,0.54,11.000000,,2013-12-07 14:02:00,
2013-12-07 09:42:00,38.0,36.0,-100.00,North,359,7.0,14.0,91,0.00,,,0.54,78.000000,,2013-12-07 14:42:00,
2013-12-07 09:52:00,38.0,36.0,-100.00,North,359,7.0,14.0,91,0.00,,,0.54,78.000000,,2013-12-07 14:52:00,
2013-12-07 10:02:00,38.0,36.0,-100.00,North,359,7.0,14.0,91,0.00,,,0.54,78.000000,,2013-12-07 15:02:00,
2013-12-07 10:43:00,39.0,35.0,-100.00,North,356,7.0,16.0,85,0.00,,,0.54,125.000000,,2013-12-07 15:43:00,
2013-12-07 10:54:00,39.0,35.0,-100.00,North,356,7.0,16.0,85,0.00,,,0.54,125.000000,,2013-12-07 15:54:00,
2013-12-07 11:03:00,39.0,35.0,-100.00,North,356,7.0,16.0,85,0.00,,,0.54,125.000000,,2013-12-07 16:03:00,
2013-12-07 11:43:00,40.0,34.0,-100.00,North,350,7.0,15.0,78,0.00,,,0.54,213.000000,,2013-12-07 16:43:00,
2013-12-07 11:53:00,40.0,34.0,-100.00,North,350,7.0,15.0,78,0.00,,,0.54,213.000000,,2013-12-07 16:53:00,
2013-12-07 12:02:00,40.0,34.0,-100.00,North,350,7.0,15.0,78,0.00,,,0.54,213.000000,,2013-12-07 17:02:00,
2013-12-07 12:43:00,42.0,34.0,-100.00,North,354,9.0,15.0,72,0.00,,,0.54,369.000000,,2013-12-07 17:43:00,
2013-12-07 12:52:00,42.0,34.0,-100.00,North,354,9.0,15.0,72,0.00,,,0.54,369.000000,,2013-12-07 17:52:00,
2013-12-07 13:02:00,42.0,34.0,-100.00,North,354,9.0,15.0,72,0.00,,,0.54,369.000000,,2013-12-07 18:02:00,
2013-12-07 13:43:00,42.0,34.0,-100.00,North,354,9.0,14.0,72,0.00,,,0.54,254.000000,,2013-12-07 18:43:00,
2013-12-07 13:52:00,42.0,34.0,-100.00,North,354,9.0,14.0,72,0.00,,,0.54,254.000000,,2013-12-07 18:52:00,
2013-12-07 14:02:00,42.0,34.0,-100.00,North,354,9.0,14.0,72,0.00,,,0.54,254.000000,,2013-12-07 19:02:00,
2013-12-07 14:42:00,44.0,32.0,-100.00,North,350,8.0,14.0,62,0.00,,,0.43,274.000000,,2013-12-07 19:42:00,
2013-12-07 14:52:00,44.0,32.0,-100.00,North,350,8.0,14.0,62,0.00,,,0.43,274.000000,,2013-12-07 19:52:00,
2013-12-07 15:02:00,44.0,32.0,-100.00,North,350,8.0,14.0,62,0.00,,,0.43,274.000000,,2013-12-07 20:02:00,
2013-12-07 15:42:00,42.0,30.0,-100.00,North,356,9.0,19.0,62,0.00,,,0.43,203.000000,,2013-12-07 20:42:00,
2013-12-07 15:53:00,42.0,30.0,-100.00,North,356,9.0,19.0,62,0.00,,,0.43,203.000000,,2013-12-07 20:53:00,
2013-12-07 16:02:00,42.0,30.0,-100.00,North,356,9.0,19.0,62,0.00,,,0.43,203.000000,,2013-12-07 21:02:00,
2013-12-07 16:43:00,40.0,29.0,-100.00,North,1,6.0,11.0,65,0.00,,,0.43,122.000000,,2013-12-07 21:43:00,
2013-12-07 16:54:00,40.0,29.0,-100.00,North,1,6.0,11.0,65,0.00,,,0.43,122.000000,,2013-12-07 21:54:00,
2013-12-07 17:03:00,40.0,29.0,-100.00,North,1,6.0,11.0,65,0.00,,,0.43,122.000000,,2013-12-07 22:03:00,
2013-12-07 17:43:00,37.0,28.0,-100.00,North,351,4.0,14.0,69,0.00,,,0.42,7.000000,,2013-12-07 22:43:00,
2013-12-07 17:53:00,37.0,28.0,-100.00,North,351,4.0,14.0,69,0.00,,,0.42,7.000000,,2013-12-07 22:53:00,
2013-12-07 18:03:00,37.0,28.0,-100.00,North,351,4.0,14.0,69,0.00,,,0.42,7.000000,,2013-12-07 23:03:00,
2013-12-07 18:43:00,34.0,29.0,-100.00,NNE,19,0.0,9.0,82,0.00,,,0.41,0.000000,,2013-12-07 23:43:00,
2013-12-07 18:52:00,34.0,29.0,-100.00,NNE,19,0.0,9.0,82,0.00,,,0.41,0.000000,,2013-12-07 23:52:00,
2013-12-07 19:02:00,34.0,29.0,-100.00,NNE,19,0.0,9.0,82,0.00,,,0.41,0.000000,,2013-12-08 00:02:00,
2013-12-07 19:42:00,32.0,29.0,-100.00,NNW,332,1.0,3.0,90,0.00,,,0.41,0.000000,,2013-12-08 00:42:00,
2013-12-07 19:52:00,32.0,29.0,-100.00,NNW,332,1.0,3.0,90,0.00,,,0.41,0.000000,,2013-12-08 00:52:00,
2013-12-07 20:02:00,32.0,29.0,-100.00,NNW,332,1.0,3.0,90,0.00,,,0.41,0.000000,,2013-12-08 01:02:00,
2013-12-07 20:42:00,32.0,30.0,-100.00,NNW,335,0.0,3.0,91,0.00,,,0.40,0.000000,,2013-12-08 01:42:00,
2013-12-07 20:52:00,32.0,30.0,-100.00,NNW,335,0.0,3.0,91,0.00,,,0.40,0.000000,,2013-12-08 01:52:00,
2013-12-07 21:02:00,32.0,30.0,-100.00,NNW,335,0.0,3.0,91,0.00,,,0.40,0.000000,,2013-12-08 02:02:00,
2013-12-07 21:43:00,31.0,29.0,-100.00,NNW,340,0.0,5.0,94,0.00,,,0.40,0.000000,,2013-12-08 02:43:00,
2013-12-07 21:52:00,31.0,29.0,-100.00,NNW,340,0.0,5.0,94,0.00,,,0.40,0.000000,,2013-12-08 02:52:00,
2013-12-07 22:02:00,31.0,29.0,-100.00,NNW,340,0.0,5.0,94,0.00,,,0.40,0.000000,,2013-12-08 03:02:00,
2013-12-07 22:44:00,28.0,28.0,-100.00,NNE,28,0.0,0.0,98,0.00,,,0.39,0.000000,,2013-12-08 03:44:00,
2013-12-07 22:54:00,28.0,28.0,-100.00,NNE,28,0.0,0.0,98,0.00,,,0.39,0.000000,,2013-12-08 03:54:00,
2013-12-07 23:02:00,-999.0,-99.9,-100.00,NNE,28,0.0,0.0,-999,0.00,,,0.39,0.000000,,2013-12-08 04:02:00,
2013-12-07 23:43:00,28.0,28.0,-100.00,NNW,339,0.0,0.0,99,0.00,,,0.39,0.000000,,2013-12-08 04:43:00,
2013-12-07 23:53:00,28.0,28.0,-100.00,NNW,339,0.0,0.0,99,0.00,,,0.39,0.000000,,2013-12-08 04:53:00,